Time;durP1;ratioP1;P1;durP2;ratioP2;P2;SDS_P1;SDS_P2;PMS_P1;PMS_P2;Temp;Humidity;BMP_temperature;BMP_pressure;BME280_temperature;BME280_humidity;BME280_pressure;Samples;Min_cycle;Max_cycle;Signal;HPM_P1;HPM_P2
2023/01/05 00:01:48;;;;;;;17.27;3.20;;;11.10;99.90;;;;;;5011897;28;20205;-44
2023/01/05 00:04:14;;;;;;;9.57;1.97;;;11.10;99.90;;;;;;5013197;28;20181;-46
2023/01/05 00:06:40;;;;;;;12.77;2.33;;;11.00;99.90;;;;;;5013117;28;20205;-46
2023/01/05 00:09:07;;;;;;;10.73;2.00;;;11.00;99.90;;;;;;5013148;28;20665;-45
2023/01/05 00:22:50;;;;;;;8.77;1.83;;;11.00;99.90;;;;;;5032024;28;20323;-46
2023/01/05 00:25:27;;;;;;;11.27;2.70;;;11.00;99.90;;;;;;5032972;28;20172;-45
2023/01/05 00:27:55;;;;;;;13.87;2.97;;;11.00;99.90;;;;;;5034070;28;20188;-47
2023/01/05 00:30:23;;;;;;;20.57;3.27;;;11.00;99.90;;;;;;5036624;28;20188;-45
2023/01/05 00:32:50;;;;;;;6.80;2.03;;;11.00;99.90;;;;;;5037293;28;20275;-45
2023/01/05 00:35:16;;;;;;;14.97;2.27;;;10.90;99.90;;;;;;5036445;28;20173;-46
2023/01/05 00:37:42;;;;;;;11.73;3.10;;;11.00;99.90;;;;;;5036324;28;20184;-45
2023/01/05 00:40:11;;;;;;;12.43;2.43;;;10.90;99.90;;;;;;5037034;28;20710;-46
2023/01/05 00:42:37;;;;;;;10.87;3.10;;;10.90;99.90;;;;;;5036166;28;20193;-46
2023/01/05 00:45:06;;;;;;;17.67;4.03;;;10.90;99.90;;;;;;5036376;28;20184;-44
2023/01/05 00:47:31;;;;;;;11.93;2.80;;;10.90;99.90;;;;;;5036063;28;20220;-47
2023/01/05 00:49:57;;;;;;;15.37;2.80;;;10.90;99.90;;;;;;5034904;28;20181;-46
2023/01/05 00:52:22;;;;;;;15.23;2.77;;;10.90;99.90;;;;;;5036231;28;20220;-45
2023/01/05 00:54:48;;;;;;;12.10;2.57;;;10.80;99.90;;;;;;5036083;28;20177;-44
2023/01/05 00:57:14;;;;;;;15.30;3.07;;;10.90;99.90;;;;;;5035913;28;20181;-44
2023/01/05 00:59:40;;;;;;;18.17;3.17;;;10.90;99.90;;;;;;5036520;28;20272;-50
2023/01/05 01:02:06;;;;;;;14.33;2.40;;;10.90;99.90;;;;;;5036215;28;20283;-52
2023/01/05 01:04:33;;;;;;;15.73;2.63;;;10.80;99.90;;;;;;5035874;28;20180;-50
2023/01/05 01:06:59;;;;;;;14.00;3.10;;;10.80;99.90;;;;;;5035875;28;20211;-49
2023/01/05 01:09:24;;;;;;;15.73;3.03;;;10.80;99.90;;;;;;5035800;28;20173;-50
2023/01/05 01:11:50;;;;;;;15.70;2.83;;;10.80;99.90;;;;;;5035617;28;20231;-50
2023/01/05 01:14:16;;;;;;;18.53;3.73;;;10.80;99.90;;;;;;5035904;28;20230;-50
2023/01/05 01:16:43;;;;;;;13.87;2.23;;;10.80;99.90;;;;;;5035878;28;20264;-51
2023/01/05 01:19:15;;;;;;;13.00;2.33;;;10.80;99.90;;;;;;5035808;28;20180;-51
2023/01/05 01:21:40;;;;;;;16.03;3.20;;;10.80;99.90;;;;;;5035486;28;20213;-49
2023/01/05 01:24:06;;;;;;;15.33;3.20;;;10.80;99.90;;;;;;5035762;28;20181;-51
2023/01/05 01:26:32;;;;;;;15.23;2.97;;;10.80;99.90;;;;;;5034146;28;20207;-50
2023/01/05 01:28:57;;;;;;;15.07;2.97;;;10.80;99.90;;;;;;5035647;28;20181;-50
2023/01/05 01:31:23;;;;;;;14.47;3.07;;;10.80;99.90;;;;;;5035296;28;20193;-51
2023/01/05 01:33:49;;;;;;;10.73;3.70;;;10.80;99.90;;;;;;5035233;28;20704;-50
2023/01/05 01:36:15;;;;;;;6.37;2.20;;;10.70;99.90;;;;;;5035626;28;20177;-51
2023/01/05 01:38:41;;;;;;;14.00;3.97;;;10.80;99.90;;;;;;5034742;28;20181;-51
2023/01/05 01:41:07;;;;;;;16.43;3.33;;;10.80;99.90;;;;;;5035493;28;20193;-50
2023/01/05 01:43:49;;;;;;;17.17;3.13;;;10.80;99.90;;;;;;5033818;28;20260;-50
2023/01/05 01:46:16;;;;;;;25.53;3.43;;;10.80;99.90;;;;;;5035547;28;20164;-50
2023/01/05 01:48:50;;;;;;;21.57;3.43;;;10.80;99.90;;;;;;5035081;28;20165;-50
2023/01/05 01:51:23;;;;;;;22.53;3.83;;;10.70;99.90;;;;;;5035102;28;20236;-50
2023/01/05 01:53:52;;;;;;;16.37;2.90;;;10.70;99.90;;;;;;5035217;28;20193;-51
2023/01/05 01:56:22;;;;;;;18.63;3.20;;;10.70;99.90;;;;;;5035138;28;20211;-50
2023/01/05 01:58:49;;;;;;;20.60;3.83;;;10.70;99.90;;;;;;5034979;28;20219;-51
2023/01/05 02:01:14;;;;;;;15.37;3.20;;;10.70;99.90;;;;;;5034644;28;20602;-49
2023/01/05 02:03:40;;;;;;;24.43;3.53;;;10.70;99.90;;;;;;5034943;28;20207;-51
2023/01/05 02:06:06;;;;;;;16.97;2.70;;;10.70;99.90;;;;;;5034703;28;20172;-51
2023/01/05 02:08:32;;;;;;;21.50;4.73;;;10.70;99.90;;;;;;5034837;28;20265;-50
2023/01/05 02:11:06;;;;;;;20.80;3.97;;;10.60;99.90;;;;;;5034505;28;20183;-50
2023/01/05 02:14:14;;;;;;;15.80;4.73;;;10.60;99.90;;;;;;5034514;28;20161;-50
2023/01/05 02:17:02;;;;;;;20.43;3.30;;;10.60;99.90;;;;;;5034534;28;20168;-51
2023/01/05 02:19:59;;;;;;;19.53;3.37;;;10.50;99.90;;;;;;5034969;28;20157;-50
2023/01/05 02:22:52;;;;;;;20.43;4.07;;;10.50;99.90;;;;;;5034261;28;20234;-50
2023/01/05 02:25:36;;;;;;;19.73;3.73;;;10.50;99.90;;;;;;5034259;28;20204;-50
2023/01/05 02:28:39;;;;;;;21.47;3.50;;;10.50;99.90;;;;;;5032867;28;20236;-50
2023/01/05 02:31:07;;;;;;;24.37;3.93;;;10.50;99.90;;;;;;5034613;28;20193;-51
2023/01/05 02:33:54;;;;;;;25.30;3.13;;;10.40;99.90;;;;;;5034374;28;20717;-51
2023/01/05 02:36:26;;;;;;;20.40;4.30;;;10.40;99.90;;;;;;5034458;28;20162;-52
2023/01/05 02:38:56;;;;;;;17.83;3.90;;;10.50;99.90;;;;;;5034125;28;20333;-50
2023/01/05 02:41:37;;;;;;;17.87;3.67;;;10.50;99.90;;;;;;5034159;28;20219;-51
2023/01/05 02:44:05;;;;;;;22.50;4.83;;;10.50;99.90;;;;;;5034258;28;20179;-52
2023/01/05 02:46:31;;;;;;;18.57;3.63;;;10.40;99.90;;;;;;5033841;28;20209;-51
2023/01/05 02:48:59;;;;;;;26.20;3.53;;;10.40;99.90;;;;;;5033824;28;20192;-50
2023/01/05 02:51:31;;;;;;;18.13;3.17;;;10.40;99.90;;;;;;5033336;28;20189;-51
2023/01/05 02:54:13;;;;;;;17.27;3.33;;;10.50;99.90;;;;;;5034028;28;20165;-50
2023/01/05 02:57:17;;;;;;;15.00;2.90;;;10.40;99.90;;;;;;5034005;28;20184;-49
2023/01/05 02:59:50;;;;;;;20.07;4.30;;;10.40;99.90;;;;;;5029326;28;20648;-51
2023/01/05 03:02:30;;;;;;;20.23;2.67;;;10.50;99.90;;;;;;5033662;28;20290;-51
2023/01/05 03:05:09;;;;;;;18.43;2.60;;;10.50;99.90;;;;;;5033914;28;20161;-51
2023/01/05 03:07:39;;;;;;;23.03;3.73;;;10.50;99.90;;;;;;5032294;28;20192;-49
2023/01/05 03:15:40;;;;;;;18.73;3.17;;;10.60;99.90;;;;;;5033787;28;20172;-50
2023/01/05 03:18:10;;;;;;;24.77;4.10;;;10.50;99.90;;;;;;5034052;28;20267;-51
2023/01/05 03:20:40;;;;;;;17.57;3.40;;;10.60;99.90;;;;;;5033258;28;20173;-50
2023/01/05 03:37:36;;;;;;;17.67;3.13;;;10.60;99.90;;;;;;5033602;28;20177;-44
2023/01/05 03:40:03;;;;;;;20.23;4.27;;;10.60;99.90;;;;;;5033560;28;20200;-46
2023/01/05 03:42:30;;;;;;;20.00;3.90;;;10.60;99.90;;;;;;5033113;28;20232;-45
2023/01/05 03:44:56;;;;;;;25.57;4.60;;;10.60;99.90;;;;;;5033365;28;20188;-46
2023/01/05 03:47:22;;;;;;;16.30;3.97;;;10.60;99.90;;;;;;5031735;28;20239;-45
2023/01/05 03:49:49;;;;;;;21.10;4.43;;;10.60;99.90;;;;;;5031885;28;20180;-44
2023/01/05 03:52:15;;;;;;;13.70;3.17;;;10.60;99.90;;;;;;5033062;28;20193;-44
2023/01/05 03:54:40;;;;;;;25.33;3.53;;;10.60;99.90;;;;;;5033034;28;20328;-43
2023/01/05 03:57:06;;;;;;;21.37;3.03;;;10.60;99.90;;;;;;5033752;28;20184;-44
2023/01/05 03:59:32;;;;;;;18.13;3.50;;;10.70;99.90;;;;;;5033152;28;20239;-44
2023/01/05 04:01:57;;;;;;;31.97;3.77;;;10.60;99.90;;;;;;5034140;28;20724;-44
2023/01/05 04:04:23;;;;;;;14.83;3.60;;;10.60;99.90;;;;;;5037521;28;20181;-46
2023/01/05 04:06:48;;;;;;;23.67;4.10;;;10.70;99.90;;;;;;5035615;28;20205;-45
2023/01/05 04:09:14;;;;;;;22.83;3.30;;;10.70;99.90;;;;;;5037566;28;20172;-45
2023/01/05 04:11:40;;;;;;;13.73;2.97;;;10.70;99.90;;;;;;5036688;28;20200;-46
2023/01/05 04:14:05;;;;;;;11.93;3.07;;;10.70;99.90;;;;;;5036870;28;20173;-45
2023/01/05 04:16:31;;;;;;;19.57;3.47;;;10.60;99.90;;;;;;5035389;28;20188;-45
2023/01/05 04:18:57;;;;;;;19.10;4.03;;;10.70;99.90;;;;;;5036968;28;20568;-43
2023/01/05 04:21:23;;;;;;;20.23;3.20;;;10.70;99.90;;;;;;5035596;28;20219;-45
2023/01/05 04:23:49;;;;;;;22.30;4.10;;;10.70;99.90;;;;;;5036831;28;20185;-44
2023/01/05 04:26:14;;;;;;;24.80;3.67;;;10.70;99.90;;;;;;5036860;28;20259;-45
2023/01/05 04:28:40;;;;;;;22.70;3.77;;;10.70;99.90;;;;;;5036496;28;20233;-45
2023/01/05 04:31:05;;;;;;;25.43;4.00;;;10.70;99.90;;;;;;5036518;28;20195;-46
2023/01/05 04:33:31;;;;;;;24.73;3.77;;;10.70;99.90;;;;;;5036426;28;20257;-44
2023/01/05 04:35:56;;;;;;;26.80;3.97;;;10.60;99.90;;;;;;5036299;28;20181;-45
2023/01/05 04:38:22;;;;;;;21.73;4.40;;;10.60;99.90;;;;;;5036623;28;20213;-44
2023/01/05 04:40:51;;;;;;;28.87;5.00;;;10.60;99.90;;;;;;5036194;28;20177;-46
2023/01/05 04:43:17;;;;;;;20.87;3.90;;;10.50;99.90;;;;;;5036268;28;20660;-43
2023/01/05 04:45:47;;;;;;;16.50;3.40;;;10.50;99.90;;;;;;5036240;28;20180;-45
2023/01/05 04:48:12;;;;;;;19.77;3.37;;;10.40;99.90;;;;;;5036125;28;20224;-43
2023/01/05 04:50:38;;;;;;;20.90;4.10;;;10.50;99.90;;;;;;5036027;28;20211;-45
2023/01/05 04:53:03;;;;;;;11.63;2.53;;;10.50;99.90;;;;;;5035932;28;20201;-44
2023/01/05 04:55:29;;;;;;;22.07;3.70;;;10.50;99.90;;;;;;5036025;28;20177;-43
2023/01/05 04:57:55;;;;;;;27.03;4.27;;;10.40;99.90;;;;;;5036455;28;20230;-46
2023/01/05 05:00:20;;;;;;;23.50;3.80;;;10.40;99.90;;;;;;5035893;28;20181;-44
2023/01/05 05:02:46;;;;;;;26.57;4.00;;;10.40;99.90;;;;;;5035804;28;20197;-45
2023/01/05 05:05:12;;;;;;;23.03;4.27;;;10.40;99.90;;;;;;5035891;28;20635;-45
2023/01/05 05:07:37;;;;;;;22.07;3.40;;;10.40;99.90;;;;;;5035743;28;20696;-44
2023/01/05 05:10:03;;;;;;;18.77;3.87;;;10.30;99.90;;;;;;5035982;28;20185;-45
2023/01/05 05:12:29;;;;;;;28.20;4.97;;;10.40;99.90;;;;;;5034516;28;20574;-45
2023/01/05 05:14:54;;;;;;;20.30;3.93;;;10.40;99.90;;;;;;5034954;28;20275;-47
2023/01/05 05:17:20;;;;;;;16.03;3.77;;;10.30;99.90;;;;;;5035634;28;20663;-45
2023/01/05 05:19:46;;;;;;;23.47;4.30;;;10.30;99.90;;;;;;5035899;28;20208;-45
2023/01/05 05:22:11;;;;;;;28.73;4.37;;;10.30;99.90;;;;;;5053451;22;20274;-50
2023/01/05 05:24:37;;;;;;;16.50;3.37;;;10.30;99.90;;;;;;5055806;28;20176;-49
2023/01/05 05:27:03;;;;;;;27.67;3.83;;;10.30;99.90;;;;;;5055751;28;20278;-48
2023/01/05 05:29:28;;;;;;;21.57;4.07;;;10.30;99.90;;;;;;5055548;28;20173;-48
2023/01/05 05:31:54;;;;;;;24.37;4.43;;;10.30;99.90;;;;;;5055324;28;20202;-48
2023/01/05 05:34:20;;;;;;;29.80;4.73;;;10.30;99.90;;;;;;5055585;28;20212;-48
2023/01/05 05:36:45;;;;;;;25.77;5.03;;;10.30;99.90;;;;;;5055522;28;20191;-49
2023/01/05 05:39:12;;;;;;;23.03;4.27;;;10.30;99.90;;;;;;5055176;28;20176;-48
2023/01/05 05:41:37;;;;;;;19.03;3.97;;;10.30;99.90;;;;;;5055493;28;20196;-48
2023/01/05 05:44:03;;;;;;;26.10;4.20;;;10.30;99.90;;;;;;5055309;28;20266;-48
2023/01/05 05:46:29;;;;;;;17.87;3.93;;;10.30;99.90;;;;;;5055144;28;20211;-50
2023/01/05 05:48:55;;;;;;;26.43;3.97;;;10.30;99.90;;;;;;5055211;28;20178;-47
2023/01/05 05:51:22;;;;;;;34.43;5.53;;;10.30;99.90;;;;;;5054856;28;20227;-50
2023/01/05 05:53:47;;;;;;;19.53;4.00;;;10.30;99.90;;;;;;5054797;28;20178;-50
2023/01/05 05:56:13;;;;;;;24.43;4.23;;;10.30;99.90;;;;;;5055166;28;20180;-50
2023/01/05 05:58:39;;;;;;;25.17;4.37;;;10.30;99.90;;;;;;5054808;28;20647;-50
2023/01/05 06:01:05;;;;;;;28.13;6.07;;;10.30;99.90;;;;;;5054676;28;20223;-49
2023/01/05 06:03:30;;;;;;;27.13;4.37;;;10.30;99.90;;;;;;5054721;28;20639;-50
2023/01/05 06:05:56;;;;;;;25.37;4.43;;;10.40;99.90;;;;;;5055323;28;20176;-50
2023/01/05 06:08:22;;;;;;;29.13;4.70;;;10.40;99.90;;;;;;5054785;28;20199;-51
2023/01/05 06:10:48;;;;;;;28.17;4.63;;;10.40;99.90;;;;;;5054519;28;20169;-51
2023/01/05 06:13:15;;;;;;;24.83;4.63;;;10.30;99.90;;;;;;5054711;28;20176;-49
2023/01/05 06:15:41;;;;;;;24.57;4.03;;;10.40;99.90;;;;;;5054428;28;20180;-51
2023/01/05 06:18:07;;;;;;;29.67;4.80;;;10.30;99.90;;;;;;5055194;28;20194;-49
2023/01/05 06:20:32;;;;;;;22.07;4.20;;;10.30;99.90;;;;;;5054345;28;20187;-49
2023/01/05 06:22:58;;;;;;;25.83;4.00;;;10.40;99.90;;;;;;5054189;28;20223;-49
2023/01/05 06:25:23;;;;;;;26.83;4.50;;;10.30;99.90;;;;;;5053188;28;20545;-50
2023/01/05 06:27:49;;;;;;;28.53;4.30;;;10.30;99.90;;;;;;5054049;28;20650;-50
2023/01/05 06:30:15;;;;;;;28.30;4.80;;;10.40;99.90;;;;;;5054295;28;20170;-51
2023/01/05 06:32:40;;;;;;;32.20;5.23;;;10.30;99.90;;;;;;5054181;28;20667;-50
2023/01/05 06:35:06;;;;;;;27.33;5.40;;;10.30;99.90;;;;;;5054085;28;20706;-50
2023/01/05 06:37:32;;;;;;;27.23;4.57;;;10.40;99.90;;;;;;5054100;28;20169;-51
2023/01/05 06:39:57;;;;;;;28.00;4.93;;;10.40;99.90;;;;;;5054299;28;20255;-51
2023/01/05 06:42:23;;;;;;;27.67;5.07;;;10.40;99.90;;;;;;5053859;28;20226;-50
2023/01/05 06:44:48;;;;;;;21.00;3.90;;;10.40;99.90;;;;;;5054127;28;20560;-48
2023/01/05 06:47:14;;;;;;;22.50;4.43;;;10.40;99.90;;;;;;5054027;28;20200;-51
2023/01/05 06:49:40;;;;;;;29.47;5.00;;;10.40;99.90;;;;;;5054051;28;20179;-49
2023/01/05 06:52:05;;;;;;;33.63;5.47;;;10.40;99.90;;;;;;5053873;28;20192;-51
2023/01/05 06:54:31;;;;;;;28.93;5.17;;;10.40;99.90;;;;;;5053934;28;20184;-51
2023/01/05 06:56:56;;;;;;;37.77;5.53;;;10.40;99.90;;;;;;5054042;28;20183;-49
2023/01/05 06:59:22;;;;;;;29.43;4.93;;;10.40;99.90;;;;;;5054095;28;20259;-48
2023/01/05 07:01:48;;;;;;;23.23;4.53;;;10.40;99.90;;;;;;5053824;28;20210;-49
2023/01/05 07:04:13;;;;;;;21.50;3.83;;;10.40;99.90;;;;;;5053620;28;20563;-49
2023/01/05 07:06:39;;;;;;;24.10;4.57;;;10.40;99.90;;;;;;5051498;28;20286;-51
2023/01/05 07:09:05;;;;;;;34.70;6.17;;;10.40;99.90;;;;;;5053611;28;20546;-48
2023/01/05 07:11:30;;;;;;;22.13;3.57;;;10.40;99.90;;;;;;5054471;28;20196;-46
2023/01/05 07:13:56;;;;;;;30.57;4.80;;;10.40;99.90;;;;;;5053502;28;20597;-46
2023/01/05 07:16:22;;;;;;;23.13;5.07;;;10.40;99.90;;;;;;5053312;28;20183;-46
2023/01/05 07:18:47;;;;;;;30.60;5.30;;;10.40;99.90;;;;;;5053597;28;20180;-45
2023/01/05 07:21:13;;;;;;;32.90;5.33;;;10.40;99.90;;;;;;5053563;28;20561;-45
2023/01/05 07:23:38;;;;;;;24.80;4.10;;;10.50;99.90;;;;;;5053232;28;20206;-46
2023/01/05 07:26:05;;;;;;;24.63;4.50;;;10.40;99.90;;;;;;5053269;28;20539;-46
2023/01/05 07:28:33;;;;;;;20.53;4.43;;;10.40;99.90;;;;;;5053107;28;20228;-47
2023/01/05 07:30:58;;;;;;;29.90;4.90;;;10.40;99.90;;;;;;5053492;28;20172;-45
2023/01/05 07:33:24;;;;;;;22.53;4.13;;;10.40;99.90;;;;;;5053645;28;20249;-48
2023/01/05 07:35:49;;;;;;;23.30;4.60;;;10.40;99.90;;;;;;5052996;28;20222;-45
2023/01/05 07:38:15;;;;;;;24.30;4.60;;;10.40;99.90;;;;;;5052795;28;20263;-44
2023/01/05 07:40:40;;;;;;;23.70;4.90;;;10.40;99.90;;;;;;5053407;28;20634;-46
2023/01/05 07:43:06;;;;;;;31.93;4.93;;;10.40;99.90;;;;;;5052968;28;20203;-47
2023/01/05 07:45:32;;;;;;;29.00;5.30;;;10.50;99.90;;;;;;5053043;28;20191;-45
2023/01/05 07:47:58;;;;;;;28.53;4.60;;;10.40;99.90;;;;;;5053274;28;20199;-46
2023/01/05 07:50:24;;;;;;;27.87;5.13;;;10.40;99.90;;;;;;5053216;28;20494;-45
2023/01/05 07:52:50;;;;;;;26.00;4.53;;;10.50;99.90;;;;;;5052871;28;20212;-43
2023/01/05 07:55:16;;;;;;;23.03;4.13;;;10.50;99.90;;;;;;5053175;28;20608;-45
2023/01/05 07:57:42;;;;;;;23.07;4.33;;;10.50;99.90;;;;;;5053173;28;20180;-47
2023/01/05 08:00:10;;;;;;;25.97;4.03;;;10.50;99.90;;;;;;5052908;28;20279;-46
2023/01/05 08:02:36;;;;;;;23.17;5.00;;;10.50;99.90;;;;;;5052694;28;20210;-45
2023/01/05 08:05:01;;;;;;;20.37;4.50;;;10.50;99.90;;;;;;5053134;28;20246;-46
2023/01/05 08:07:27;;;;;;;28.83;5.63;;;10.50;99.90;;;;;;5052754;28;20200;-47
2023/01/05 08:13:58;;;;;;;24.97;4.90;;;10.50;99.90;;;;;;5052923;28;20619;-47
2023/01/05 08:15:22;;;;;;;26.23;4.80;;;10.50;99.90;;;;;;5052625;28;20589;-48
2023/01/05 08:17:48;;;;;;;24.67;4.83;;;10.50;99.90;;;;;;5052863;28;20180;-47
2023/01/05 08:20:13;;;;;;;25.47;4.27;;;10.50;99.90;;;;;;5052984;28;20187;-47
2023/01/05 08:22:39;;;;;;;22.83;4.60;;;10.50;99.90;;;;;;5052435;28;20227;-46
2023/01/05 08:25:05;;;;;;;24.20;5.07;;;10.40;99.90;;;;;;5052988;28;20219;-47
2023/01/05 08:27:30;;;;;;;28.70;5.23;;;10.50;99.90;;;;;;5052590;28;20258;-45
2023/01/05 08:29:56;;;;;;;28.97;4.83;;;10.50;99.90;;;;;;5052593;28;20179;-46
2023/01/05 08:32:22;;;;;;;27.20;4.90;;;10.50;99.90;;;;;;5052779;28;20200;-47
2023/01/05 08:34:47;;;;;;;34.90;5.97;;;10.50;99.90;;;;;;5053362;28;20643;-46
2023/01/05 08:37:13;;;;;;;32.17;5.37;;;10.50;99.90;;;;;;5052616;28;20306;-45
2023/01/05 08:39:38;;;;;;;32.23;5.23;;;10.50;99.90;;;;;;5052524;28;20635;-44
2023/01/05 08:42:04;;;;;;;24.80;4.27;;;10.50;99.90;;;;;;5052500;28;20283;-45
2023/01/05 08:44:30;;;;;;;31.70;4.80;;;10.50;99.90;;;;;;5052777;28;20222;-46
2023/01/05 08:46:55;;;;;;;24.70;5.27;;;10.50;99.90;;;;;;5052641;28;20204;-47
2023/01/05 08:49:21;;;;;;;29.57;5.63;;;10.50;99.90;;;;;;5054828;28;20187;-47
2023/01/05 08:51:46;;;;;;;31.40;5.00;;;10.50;99.90;;;;;;5055928;28;20192;-48
2023/01/05 08:54:12;;;;;;;29.67;5.13;;;10.50;99.90;;;;;;5056247;28;20206;-46
2023/01/05 08:56:38;;;;;;;26.50;4.97;;;10.50;99.90;;;;;;5056007;28;20183;-48
2023/01/05 08:59:04;;;;;;;27.03;5.90;;;10.60;99.90;;;;;;5055947;28;20180;-46
2023/01/05 09:01:30;;;;;;;32.97;5.37;;;10.50;99.90;;;;;;5037914;28;20204;-46
2023/01/05 09:03:55;;;;;;;31.27;5.90;;;10.50;99.90;;;;;;5056157;28;20191;-44
2023/01/05 09:06:21;;;;;;;31.03;5.53;;;10.60;99.90;;;;;;5055917;28;20192;-46
2023/01/05 09:08:47;;;;;;;29.70;4.97;;;10.60;99.90;;;;;;5055785;28;20177;-44
2023/01/05 09:11:22;;;;;;;32.00;5.47;;;10.60;99.90;;;;;;5055606;28;20730;-46
2023/01/05 09:13:50;;;;;;;32.40;7.10;;;10.60;99.90;;;;;;5055786;28;20198;-47
2023/01/05 09:16:18;;;;;;;22.73;4.77;;;10.60;99.90;;;;;;5055753;28;20176;-47
2023/01/05 09:18:44;;;;;;;30.70;6.43;;;10.60;99.90;;;;;;5055870;28;20194;-46
2023/01/05 09:21:11;;;;;;;28.93;6.20;;;10.60;99.90;;;;;;5055419;28;20208;-46
2023/01/05 09:23:37;;;;;;;33.40;4.67;;;10.60;99.90;;;;;;5055358;28;20253;-47
2023/01/05 09:26:04;;;;;;;31.50;6.10;;;10.60;99.90;;;;;;5055527;28;20187;-46
2023/01/05 09:28:30;;;;;;;29.77;6.00;;;10.60;99.90;;;;;;5037409;28;20302;-45
2023/01/05 09:30:55;;;;;;;42.20;6.53;;;10.60;99.90;;;;;;5055685;28;20215;-47
2023/01/05 09:33:21;;;;;;;31.67;5.07;;;10.70;99.90;;;;;;5055540;28;20172;-47
2023/01/05 09:35:54;;;;;;;27.80;4.00;;;10.70;99.90;;;;;;5055405;28;20643;-47
2023/01/05 09:38:20;;;;;;;30.23;5.23;;;10.70;99.90;;;;;;5055535;28;20183;-47
2023/01/05 09:40:47;;;;;;;32.97;4.97;;;10.70;99.90;;;;;;5055406;28;20553;-47
2023/01/05 09:43:23;;;;;;;26.60;4.87;;;10.70;99.90;;;;;;5055448;28;20231;-46
2023/01/05 09:45:50;;;;;;;22.40;4.40;;;10.70;99.90;;;;;;5055717;28;20530;-52
2023/01/05 09:48:16;;;;;;;30.10;5.67;;;10.80;99.90;;;;;;5055686;28;20204;-49
2023/01/05 09:50:43;;;;;;;29.67;4.97;;;10.80;99.90;;;;;;5055631;28;20173;-51
2023/01/05 09:53:11;;;;;;;29.50;4.37;;;10.80;99.90;;;;;;5055823;28;20646;-48
2023/01/05 09:55:39;;;;;;;31.67;6.67;;;10.80;99.90;;;;;;5055848;28;20263;-50
2023/01/05 09:58:11;;;;;;;25.57;5.07;;;10.80;99.90;;;;;;5055659;28;20589;-50
2023/01/05 10:00:42;;;;;;;29.30;6.33;;;10.90;99.90;;;;;;5056099;28;20171;-50
2023/01/05 10:03:22;;;;;;;23.97;4.87;;;10.90;99.90;;;;;;5055796;28;20196;-49
2023/01/05 10:05:48;;;;;;;30.27;6.90;;;10.90;99.90;;;;;;5056055;28;20256;-49
2023/01/05 10:08:23;;;;;;;26.70;5.20;;;11.00;99.90;;;;;;5055671;28;20200;-50
2023/01/05 10:13:40;;;;;;;37.13;6.83;;;11.00;99.90;;;;;;5056067;28;20170;-50
2023/01/05 10:16:09;;;;;;;27.40;5.13;;;11.10;99.90;;;;;;5055931;28;20164;-50
2023/01/05 10:18:36;;;;;;;35.63;5.23;;;11.10;99.90;;;;;;5056117;28;20191;-50
2023/01/05 10:21:29;;;;;;;30.20;5.40;;;11.10;99.90;;;;;;5055998;28;20194;-50
2023/01/05 10:24:20;;;;;;;22.73;5.10;;;11.10;99.90;;;;;;5055469;28;20673;-49
2023/01/05 10:26:51;;;;;;;35.93;5.60;;;11.20;99.90;;;;;;5055668;28;20199;-48
2023/01/05 10:29:24;;;;;;;30.63;6.10;;;11.20;99.90;;;;;;5056236;28;20160;-49
2023/01/05 10:32:07;;;;;;;31.50;5.60;;;11.30;99.90;;;;;;5056077;28;20236;-50
2023/01/05 10:35:01;;;;;;;29.23;5.17;;;11.20;99.90;;;;;;5056334;28;20260;-48
2023/01/05 10:37:44;;;;;;;36.13;5.67;;;11.30;99.90;;;;;;5055848;28;20546;-50
2023/01/05 10:40:10;;;;;;;34.20;4.90;;;11.30;99.90;;;;;;5055817;28;20695;-49
2023/01/05 10:43:15;;;;;;;31.67;6.53;;;11.30;99.90;;;;;;5056410;28;20234;-49
2023/01/05 10:45:40;;;;;;;22.03;4.97;;;11.30;99.90;;;;;;5055931;28;20183;-50
2023/01/05 10:48:16;;;;;;;22.20;5.47;;;11.30;99.90;;;;;;5055974;28;20207;-50
2023/01/05 10:50:43;;;;;;;30.23;4.83;;;11.30;99.90;;;;;;5055778;28;20206;-49
2023/01/05 10:53:13;;;;;;;18.77;4.23;;;11.30;99.90;;;;;;5056533;28;20662;-49
2023/01/05 10:55:59;;;;;;;23.03;4.60;;;11.40;99.90;;;;;;5056648;28;20184;-50
2023/01/05 10:58:30;;;;;;;28.33;5.80;;;11.30;99.90;;;;;;5056306;28;20173;-49
2023/01/05 11:01:13;;;;;;;28.67;5.23;;;11.30;99.90;;;;;;5057043;28;20176;-50
2023/01/05 11:03:46;;;;;;;38.13;6.57;;;11.30;99.90;;;;;;5056702;28;20199;-49
2023/01/05 11:06:20;;;;;;;28.57;4.97;;;11.40;99.90;;;;;;5056452;28;20586;-49
2023/01/05 11:08:46;;;;;;;30.43;5.50;;;11.40;99.90;;;;;;5056270;28;20175;-50
2023/01/05 11:11:25;;;;;;;23.70;4.53;;;11.50;99.90;;;;;;5055374;28;20249;-49
2023/01/05 11:13:57;;;;;;;31.20;5.63;;;11.50;99.90;;;;;;5056180;28;20534;-48
2023/01/05 11:16:31;;;;;;;34.50;6.13;;;11.50;99.90;;;;;;5055627;28;20188;-48
2023/01/05 11:19:00;;;;;;;26.80;5.27;;;11.50;99.90;;;;;;5056468;28;20528;-49
2023/01/05 11:21:38;;;;;;;22.17;3.90;;;11.50;99.90;;;;;;5055894;28;20204;-50
2023/01/05 11:24:04;;;;;;;25.87;5.23;;;11.60;99.90;;;;;;5055975;28;20274;-49
2023/01/05 11:26:34;;;;;;;25.13;4.63;;;11.60;99.90;;;;;;5055913;28;20184;-48
2023/01/05 11:29:13;;;;;;;19.93;4.13;;;11.60;99.90;;;;;;5056551;28;20566;-49
2023/01/05 11:31:47;;;;;;;31.33;5.23;;;11.70;99.90;;;;;;5055721;28;20203;-50
2023/01/05 11:34:28;;;;;;;21.50;4.70;;;11.80;99.90;;;;;;5037802;28;20203;-50
2023/01/05 11:36:57;;;;;;;28.63;5.80;;;11.90;99.90;;;;;;5055309;28;20662;-49
2023/01/05 11:39:45;;;;;;;28.73;4.53;;;11.90;99.90;;;;;;5055672;28;20580;-51
2023/01/05 11:42:11;;;;;;;17.90;3.30;;;12.00;99.90;;;;;;5054598;28;20281;-50
2023/01/05 11:44:40;;;;;;;25.50;4.97;;;12.00;99.90;;;;;;5055210;28;20188;-49
2023/01/05 11:47:07;;;;;;;17.03;4.00;;;12.00;99.90;;;;;;5054811;28;20672;-50
2023/01/05 11:49:33;;;;;;;29.33;5.07;;;12.00;99.90;;;;;;5054851;28;20180;-49
2023/01/05 11:51:59;;;;;;;25.70;5.97;;;12.00;99.90;;;;;;5054161;28;20267;-48
2023/01/05 11:54:37;;;;;;;19.37;4.67;;;12.00;99.90;;;;;;5054692;28;20218;-49
2023/01/05 11:57:21;;;;;;;30.43;5.03;;;12.00;99.90;;;;;;5054250;28;20266;-49
2023/01/05 11:59:49;;;;;;;25.57;4.60;;;12.00;99.90;;;;;;5054340;28;20180;-48
2023/01/05 12:02:52;;;;;;;18.20;4.30;;;12.00;99.90;;;;;;5053691;28;20206;-48
2023/01/05 12:05:42;;;;;;;26.37;5.33;;;12.00;99.90;;;;;;5054211;28;20543;-49
2023/01/05 12:08:15;;;;;;;25.17;4.47;;;11.90;99.90;;;;;;5053547;28;20200;-48
2023/01/05 12:10:54;;;;;;;27.40;4.77;;;11.90;99.90;;;;;;5054074;28;20161;-50
2023/01/05 12:13:48;;;;;;;21.53;4.90;;;11.90;99.90;;;;;;5054332;28;20171;-49
2023/01/05 12:16:36;;;;;;;26.20;4.90;;;11.80;99.90;;;;;;5053476;28;20180;-50
2023/01/05 12:19:01;;;;;;;23.43;4.63;;;11.80;99.90;;;;;;5053423;28;20165;-50
2023/01/05 12:21:39;;;;;;;28.97;5.23;;;11.70;99.90;;;;;;5052929;28;20690;-51
2023/01/05 12:24:23;;;;;;;17.30;4.53;;;11.70;99.90;;;;;;5055849;28;20195;-50
2023/01/05 12:27:07;;;;;;;24.27;5.00;;;11.60;99.90;;;;;;5038834;28;20214;-51
2023/01/05 12:29:51;;;;;;;26.47;5.27;;;11.70;99.90;;;;;;5056974;28;20248;-50
2023/01/05 12:32:40;;;;;;;21.03;4.80;;;11.70;99.90;;;;;;5056863;28;20192;-50
2023/01/05 12:35:31;;;;;;;31.63;5.87;;;11.70;99.90;;;;;;5056977;28;20189;-50
2023/01/05 12:38:13;;;;;;;20.17;4.73;;;11.80;99.90;;;;;;5056716;28;20189;-47
2023/01/05 12:40:47;;;;;;;27.60;4.73;;;11.80;99.90;;;;;;5057174;28;20172;-48
2023/01/05 12:43:29;;;;;;;45.40;6.50;;;11.80;99.90;;;;;;5056618;28;20163;-49
2023/01/05 12:46:25;;;;;;;27.40;4.93;;;11.80;99.90;;;;;;5056953;28;20255;-48
2023/01/05 12:48:57;;;;;;;26.20;5.27;;;11.70;99.90;;;;;;5056873;28;20633;-50
2023/01/05 12:51:34;;;;;;;23.07;4.93;;;11.70;99.90;;;;;;5056449;28;20196;-48
2023/01/05 12:54:12;;;;;;;28.60;5.40;;;11.70;99.90;;;;;;5056671;28;20169;-48
2023/01/05 12:56:50;;;;;;;28.13;5.63;;;11.70;99.90;;;;;;5056565;28;20160;-48
2023/01/05 12:59:23;;;;;;;26.43;5.60;;;11.70;99.90;;;;;;5056484;28;20164;-49
2023/01/05 13:02:20;;;;;;;20.53;4.63;;;11.80;99.90;;;;;;5056335;28;20299;-49
2023/01/05 13:05:00;;;;;;;28.73;4.77;;;11.70;99.90;;;;;;5015430;28;20250;-49
2023/01/05 13:07:25;;;;;;;31.37;6.07;;;11.70;99.90;;;;;;5056257;28;20203;-49
2023/01/05 13:10:03;;;;;;;37.87;5.60;;;11.70;99.90;;;;;;5056011;28;20624;-49
2023/01/05 13:12:30;;;;;;;33.90;6.43;;;11.60;99.90;;;;;;5056091;28;20200;-50
2023/01/05 13:15:21;;;;;;;30.77;5.43;;;11.60;99.90;;;;;;5056243;28;20184;-50
2023/01/05 13:17:49;;;;;;;24.50;4.33;;;11.60;99.90;;;;;;5056176;28;20264;-48
2023/01/05 13:20:32;;;;;;;26.93;5.07;;;11.60;99.90;;;;;;5055955;28;20203;-50
2023/01/05 13:23:06;;;;;;;28.53;5.57;;;11.60;99.90;;;;;;5055940;28;20219;-49
2023/01/05 13:25:40;;;;;;;24.77;4.93;;;11.50;99.90;;;;;;5056317;28;20608;-49
2023/01/05 13:28:19;;;;;;;32.10;6.07;;;11.60;99.90;;;;;;5055971;28;20192;-51
2023/01/05 13:30:57;;;;;;;25.77;4.63;;;11.60;99.90;;;;;;5056160;28;20569;-49